• Join FlightAware (Why Join?)
  • Login
  • US Flag 
07:26PM EDT


 

Airport Tracker/Info


-or-


 

Live Flight TrackerFlight Track Log ✈ GLA51N ✈ 05-May-2013 ✈ KMCK - KDEN

Flight Track Log - Related Links

Times and Time Zones

All times are in EDT time to prevent confusion due to time zone crossing. See the GLA51N flight status page for this flight to view local times or setup timezone preferences in your user account.

Time Position Orientation Groundspeed Altitude Reporting Facility
EDT Latitude Longitude Course Direction KTS MPH feet Rate Location/Type
10:14AM 40.2442 -100.7133 284° West 177 204 5,600  Level Denver Center
10:15AM 40.2689 -100.7717 299° West 186 214 7,200 1,440 Climbing Denver Center
10:16AM 40.4651 -100.9719 290° West  Level FlightAware Approximate
10:16AM 40.2944 -100.8414 296° West 189 217 8,600  Level Denver Center
10:17AM 40.4877 -101.0549 290° West  Level FlightAware Approximate
10:17AM 40.3108 -100.9072 288° West 193 222 9,600  Level Denver Center
10:18AM 40.5123 -101.1369 294° West  Level FlightAware Approximate
10:18AM 40.3392 -100.9675 302° West 199 229 10,500  Level Denver Center
10:19AM 40.5395 -101.2175 295° West  Level FlightAware Approximate
10:19AM 40.3775 -101.0361 306° West 207 238 11,500  Level Denver Center
10:20AM 40.3994 -101.1022 294° West 207 238 12,400 900 Climbing Denver Center
10:21AM 40.4236 -101.1789 293° West 204 235 13,400 1,080 Climbing Denver Center
10:22AM 40.4478 -101.2439 296° West 206 237 14,700 1,080 Climbing Denver Center
10:24AM 40.4706 -101.3083 295° West 204 235 15,700 1,080 Climbing Denver Center
10:25AM 40.4997 -101.3819 298° West 204 235 17,000 960 Climbing Denver Center
10:26AM 40.5208 -101.4483 293° West 205 236 17,700 780 Climbing Denver Center
10:27AM 40.5403 -101.5275 288° West 205 236 18,700 840 Climbing Denver Center
10:28AM 40.5461 -101.5997 276° West 208 239 19,500 1,080 Climbing Denver Center
10:29AM 40.5503 -101.6761 274° West 187 215 21,000 960 Climbing Denver Center
10:30AM 40.5556 -101.7436 276° West 194 223 21,500 540 Climbing Denver Center
10:31AM 40.5600 -101.8131 275° West 198 228 22,200 660 Climbing Denver Center
10:32AM 40.5650 -101.8983 274° West 208 239 22,900 540 Climbing Denver Center
10:33AM 40.5703 -101.9708 275° West 208 239 23,400 420 Climbing Denver Center
10:34AM 40.5775 -102.0583 276° West 215 247 23,800 240 Climbing Denver Center
10:35AM 40.5844 -102.1372 277° West 226 260 24,000  Climbing Denver Center
10:36AM 40.5933 -102.2325 277° West 236 272 23,900  Descending Denver Center
10:37AM 40.5928 -102.3169 270° West 242 278 24,000  Climbing Denver Center
10:38AM 40.5886 -102.3997 266° West 237 273 24,000  Level Denver Center
10:39AM 40.5856 -102.4989 268° West 241 277 24,000  Level Denver Center
10:40AM 40.5786 -102.5825 264° West 239 275 24,000  Level Denver Center
10:41AM 40.5747 -102.6719 267° West 241 277 24,000  Level Denver Center
10:42AM 40.5747 -102.7750 270° West 239 275 24,000  Level Denver Center
10:43AM 40.5694 -102.8642 266° West 241 277 24,000 -60 Level Denver Center
10:44AM 40.5575 -102.9514 260° West 241 277 23,900 -60 Descending Denver Center
10:45AM 40.5436 -103.0389 258° West 243 280 23,900  Level Denver Center
10:46AM 40.5358 -103.1278 263° West 243 280 23,900  Level Denver Center
10:47AM 40.5331 -103.2167 268° West 242 278 24,000 -540 Climbing Denver Center
10:48AM 40.5211 -103.3067 260° West 249 287 22,800 -1,260 Descending Denver Center
10:49AM 40.5117 -103.4019 263° West 259 298 21,500 -1,320 Descending Denver Center
10:50AM 40.4989 -103.5089 261° West 254 292 20,100 -1,380 Descending Denver Center
10:51AM 40.4853 -103.6003 259° West 253 291 18,700 -1,740 Descending Denver Center
10:52AM 40.4700 -103.6950 258° West 262 302 16,600 -2,040 Descending Denver Center
10:53AM 40.4553 -103.7908 259° West 266 306 14,500 -1,620 Descending Denver Center
10:54AM 40.4217 -103.8883 246° West 293 337 13,300 -720 Descending Denver Center
10:55AM 40.3744 -103.9672 232° Southwest 276 318 13,100 -480 Descending Denver Center
10:57AM 40.3286 -104.0592 237° Southwest 278 320 12,400 -720 Descending Denver Center
10:58AM 40.2881 -104.1444 238° Southwest 277 319 11,700 -540 Descending Denver Center
10:59AM 40.2475 -104.2372 240° Southwest 272 313 11,300 -360 Descending Denver Center
11:00AM 40.2508 -104.3286 273° West 250 288 11,000 -480 Descending Denver Center
11:01AM 40.2411 -104.4139 262° West 241 277 10,400 -840 Descending Denver Center
11:02AM 40.2186 -104.5031 252° West 241 277 9,300 -600 Descending Denver Center
11:03AM 40.1803 -104.5700 233° Southwest 234 269 9,200 -240 Descending Denver Center
11:04AM 40.1236 -104.6181 213° Southwest 226 260 8,900 -540 Descending Denver Center
11:05AM 40.0783 -104.6583 214° Southwest 185 213 8,200 -480 Descending Denver Center
11:06AM 40.0289 -104.6861 203° Southwest 184 212 8,000 -480 Descending Denver Center
11:07AM 39.9783 -104.6864 180° South 184 212 7,300 -960 Descending Denver Center
11:08AM 39.9311 -104.6864 180° South 160 184 6,100 -960 Descending Denver Center
11:09AM 39.8900 -104.6869 181° South 150 173 5,400 -720 Descending Denver Center
11:11AM 39.8617 -104.6732 229° Southwest  Level Estimated
11:18AM 39.8617 -104.6732 229° Southwest  Level Estimated
11:19AM 39.8617 -104.6732 229° Southwest  Level Estimated
11:20AM 39.8617 -104.6732 229° Southwest  Level Estimated